Time;durP1;ratioP1;P1;durP2;ratioP2;P2;SDS_P1;SDS_P2;PMS_P1;PMS_P2;Temp;Humidity;BMP_temperature;BMP_pressure;BME280_temperature;BME280_humidity;BME280_pressure;Samples;Min_cycle;Max_cycle;Signal;HPM_P1;HPM_P2
2023/11/18 00:01:22;;;;;;;12.88;5.63;;;;;;;-7.35;74.43;99925.50;5013676;28;20060;-61
2023/11/18 00:03:47;;;;;;;10.00;5.75;;;;;;;-7.35;74.27;99928.09;5015438;28;20453;-60
2023/11/18 00:06:13;;;;;;;12.30;6.13;;;;;;;-7.41;74.59;99926.78;5013692;28;20549;-62
2023/11/18 00:08:39;;;;;;;9.68;5.60;;;;;;;-7.49;74.97;99929.06;5013781;28;20085;-60
2023/11/18 00:11:04;;;;;;;13.85;5.88;;;;;;;-7.41;75.28;99931.91;5014490;28;20038;-61
2023/11/18 00:13:30;;;;;;;10.82;5.85;;;;;;;-7.41;75.87;99926.78;5014626;28;20060;-59
2023/11/18 00:15:57;;;;;;;10.32;6.03;;;;;;;-7.45;75.48;99927.91;5013614;28;20049;-63
2023/11/18 00:18:24;;;;;;;11.50;5.95;;;;;;;-7.45;74.58;99924.50;5014590;28;20045;-60
2023/11/18 00:20:52;;;;;;;15.00;5.78;;;;;;;-7.46;74.94;99928.03;5013726;28;20033;-60
2023/11/18 00:23:18;;;;;;;12.60;6.10;;;;;;;-7.46;75.07;99933.16;5013383;28;20184;-61
2023/11/18 00:25:45;;;;;;;9.93;4.90;;;;;;;-7.47;75.36;99939.22;5014807;28;20120;-60
2023/11/18 00:28:14;;;;;;;11.02;5.78;;;;;;;-7.48;75.80;99940.19;5014426;28;20061;-61
2023/11/18 00:30:40;;;;;;;10.07;5.60;;;;;;;-7.48;75.38;99943.56;5010544;28;20051;-59
2023/11/18 00:33:06;;;;;;;8.88;5.35;;;;;;;-7.50;75.78;99945.41;5016743;28;20133;-61
2023/11/18 00:35:33;;;;;;;14.60;6.20;;;;;;;-7.59;75.80;99933.19;5013372;28;20099;-61
2023/11/18 00:37:59;;;;;;;9.27;5.50;;;;;;;-7.58;76.51;99932.28;5012891;28;20045;-61
2023/11/18 00:40:25;;;;;;;20.48;4.80;;;;;;;-7.54;76.18;99931.13;5014661;28;20054;-62
2023/11/18 00:42:51;;;;;;;7.32;4.82;;;;;;;-7.54;76.31;99931.94;5013158;28;20042;-59
2023/11/18 00:45:18;;;;;;;8.60;4.75;;;;;;;-7.53;76.68;99940.47;5012982;28;20052;-61
2023/11/18 00:47:43;;;;;;;12.90;6.32;;;;;;;-7.56;76.48;99940.69;5012943;28;20042;-60
2023/11/18 00:50:09;;;;;;;9.20;5.00;;;;;;;-7.55;76.40;99948.34;5014361;28;20041;-61
2023/11/18 00:52:38;;;;;;;12.00;5.93;;;;;;;-7.56;76.03;99948.44;5012156;28;20073;-59
2023/11/18 00:55:06;;;;;;;12.77;5.80;;;;;;;-7.55;76.37;99943.19;5014273;28;20388;-60
2023/11/18 00:57:33;;;;;;;15.10;6.55;;;;;;;-7.61;76.72;99956.50;5014303;28;20045;-61
2023/11/18 00:59:59;;;;;;;11.15;6.28;;;;;;;-7.65;75.99;99962.75;5013776;28;20050;-60
2023/11/18 01:02:24;;;;;;;14.50;6.65;;;;;;;-7.70;77.06;99954.56;4996322;28;20423;-60
2023/11/18 01:04:50;;;;;;;11.32;6.22;;;;;;;-7.68;76.60;99960.41;5013896;28;20084;-61
2023/11/18 01:07:16;;;;;;;14.95;6.88;;;;;;;-7.75;77.16;99956.63;5012784;28;20046;-60
2023/11/18 01:09:42;;;;;;;13.40;6.45;;;;;;;-7.71;77.28;99957.22;4996421;28;20038;-60
2023/11/18 01:12:09;;;;;;;13.38;6.90;;;;;;;-7.69;77.43;99960.53;5013632;28;20048;-60
2023/11/18 01:14:37;;;;;;;14.35;7.18;;;;;;;-7.74;77.28;99960.00;5013828;28;20093;-60
2023/11/18 01:17:05;;;;;;;16.67;6.82;;;;;;;-7.85;77.25;99955.63;5012445;28;20054;-60
2023/11/18 01:19:31;;;;;;;12.23;6.40;;;;;;;-7.80;78.08;99964.66;4995962;28;20053;-60
2023/11/18 01:21:59;;;;;;;11.35;6.20;;;;;;;-7.86;77.99;99959.94;5012366;28;20049;-60
2023/11/18 01:24:25;;;;;;;11.18;5.72;;;;;;;-7.84;77.88;99963.22;5013544;28;20143;-59
2023/11/18 01:26:51;;;;;;;14.88;6.68;;;;;;;-7.84;78.00;99962.41;5012192;28;20128;-61
2023/11/18 01:29:17;;;;;;;12.23;6.82;;;;;;;-7.79;78.33;99965.50;4994356;28;20037;-58
2023/11/18 01:31:43;;;;;;;12.93;6.60;;;;;;;-7.84;77.47;99970.13;5012477;28;20052;-59
2023/11/18 01:34:09;;;;;;;17.48;6.55;;;;;;;-7.84;77.42;99965.81;5011935;28;20128;-60
2023/11/18 01:36:35;;;;;;;15.90;6.65;;;;;;;-7.86;78.18;99972.78;5011983;28;20140;-60
2023/11/18 01:39:01;;;;;;;12.23;6.05;;;;;;;-7.83;77.58;99974.34;5013520;28;20625;-60
2023/11/18 01:41:27;;;;;;;11.95;6.15;;;;;;;-7.86;77.70;99967.66;4995655;28;20575;-60
2023/11/18 01:43:53;;;;;;;11.68;5.97;;;;;;;-7.88;78.26;99976.41;4994947;28;20092;-58
2023/11/18 01:46:20;;;;;;;15.48;5.60;;;;;;;-7.86;77.97;99969.41;4995692;28;20042;-63
2023/11/18 01:48:46;;;;;;;10.70;4.85;;;;;;;-7.90;77.83;99973.13;5012094;28;20046;-59
2023/11/18 01:51:12;;;;;;;14.18;5.53;;;;;;;-7.85;77.92;99978.78;4995614;28;20046;-61
2023/11/18 01:53:41;;;;;;;10.27;5.60;;;;;;;-7.87;77.78;99972.91;5013366;28;20057;-60
2023/11/18 01:56:08;;;;;;;7.70;4.80;;;;;;;-7.83;77.46;99975.16;5011620;28;20518;-59
2023/11/18 01:58:35;;;;;;;11.98;5.43;;;;;;;-7.80;77.63;99977.53;5011711;28;20083;-60
2023/11/18 02:01:02;;;;;;;12.43;5.40;;;;;;;-7.84;78.06;99977.84;4994970;28;20038;-59
2023/11/18 02:03:30;;;;;;;15.98;6.68;;;;;;;-7.85;77.89;99969.31;5011820;28;20046;-60
2023/11/18 02:05:57;;;;;;;18.67;6.78;;;;;;;-7.89;77.90;99972.19;5010493;28;20088;-59
2023/11/18 02:08:22;;;;;;;17.42;6.35;;;;;;;-7.92;76.83;99974.97;4995368;28;20111;-59
2023/11/18 02:11:06;;;;;;;11.48;6.13;;;;;;;-7.99;78.51;99982.28;5012524;28;20411;-59
2023/11/18 02:13:34;;;;;;;9.65;5.95;;;;;;;-7.95;77.54;99977.75;4995155;28;20119;-59
2023/11/18 02:16:02;;;;;;;15.18;6.40;;;;;;;-8.00;77.40;99976.34;4995185;28;20072;-59
2023/11/18 02:18:29;;;;;;;15.20;6.00;;;;;;;-7.95;78.04;99977.75;5011595;28;20177;-59
2023/11/18 02:21:15;;;;;;;13.30;5.63;;;;;;;-7.99;78.02;99966.84;5014764;28;20069;-59
2023/11/18 02:23:42;;;;;;;15.55;6.95;;;;;;;-8.07;77.51;99975.09;4998439;28;20049;-60
2023/11/18 02:26:09;;;;;;;13.45;6.13;;;;;;;-8.07;78.22;99971.69;4998281;28;20446;-60
2023/11/18 02:28:35;;;;;;;16.83;6.95;;;;;;;-8.14;78.94;99966.16;5015133;28;20263;-59
2023/11/18 02:31:15;;;;;;;11.65;6.60;;;;;;;-8.05;78.32;99978.38;5013578;28;20084;-62
2023/11/18 02:33:53;;;;;;;14.60;6.80;;;;;;;-8.06;79.26;99979.31;4996123;28;20045;-60
2023/11/18 02:36:27;;;;;;;13.40;6.88;;;;;;;-8.06;78.99;99975.91;5011510;28;20030;-58
2023/11/18 02:38:54;;;;;;;13.13;7.20;;;;;;;-8.06;78.54;99966.47;5011102;28;20511;-60
2023/11/18 02:41:21;;;;;;;14.57;6.55;;;;;;;-8.05;78.73;99975.81;4994719;28;20041;-60
2023/11/18 02:43:47;;;;;;;12.35;5.90;;;;;;;-8.06;79.98;99966.47;5011044;28;20503;-58
2023/11/18 02:46:13;;;;;;;18.80;7.72;;;;;;;-8.04;79.08;99968.91;4994545;28;20045;-61
2023/11/18 02:48:41;;;;;;;17.13;6.15;;;;;;;-8.12;79.17;99966.84;5012446;28;20095;-60
2023/11/18 02:51:08;;;;;;;12.10;5.38;;;;;;;-8.05;79.46;99980.16;5012820;28;20046;-59
2023/11/18 02:53:34;;;;;;;11.30;5.80;;;;;;;-8.05;80.01;99977.56;5011245;28;20045;-60
2023/11/18 02:56:02;;;;;;;10.35;5.60;;;;;;;-8.08;79.81;99976.03;5012325;28;20041;-59
2023/11/18 02:58:29;;;;;;;13.02;5.47;;;;;;;-8.08;79.37;99980.34;5010291;28;20077;-60
2023/11/18 03:00:55;;;;;;;8.77;5.38;;;;;;;-8.09;79.21;99978.69;5012247;28;20056;-60
2023/11/18 03:03:21;;;;;;;12.65;5.75;;;;;;;-8.11;79.67;99975.41;5012089;28;20407;-61
2023/11/18 03:05:49;;;;;;;12.00;5.55;;;;;;;-8.13;79.98;99983.22;5010544;28;20539;-59
2023/11/18 03:08:15;;;;;;;17.45;6.43;;;;;;;-8.11;80.19;99972.84;5011763;28;20140;-60
2023/11/18 03:10:44;;;;;;;12.30;5.97;;;;;;;-8.13;80.03;99979.81;5010604;28;20511;-60
2023/11/18 03:13:12;;;;;;;11.80;5.65;;;;;;;-8.09;80.07;99978.69;5011388;28;20089;-59
2023/11/18 03:15:38;;;;;;;9.77;5.43;;;;;;;-8.14;79.82;99975.63;5011395;28;20046;-59
2023/11/18 03:18:05;;;;;;;13.82;6.35;;;;;;;-8.12;79.95;99974.56;5010295;28;20462;-60
2023/11/18 03:20:33;;;;;;;13.77;5.90;;;;;;;-8.11;79.82;99980.56;5010696;28;20033;-60
2023/11/18 03:23:03;;;;;;;13.15;6.10;;;;;;;-8.12;79.49;99978.91;5011591;28;20487;-60
2023/11/18 03:25:29;;;;;;;13.43;5.60;;;;;;;-8.14;80.58;99983.34;5010656;28;20042;-60
2023/11/18 03:27:54;;;;;;;11.10;5.85;;;;;;;-8.14;80.56;99979.00;5011373;28;20133;-60
2023/11/18 03:30:21;;;;;;;11.18;5.72;;;;;;;-8.12;79.64;99982.28;5010713;28;20081;-59
2023/11/18 03:32:46;;;;;;;9.70;5.65;;;;;;;-8.15;79.50;99984.25;5011413;28;20514;-60
2023/11/18 03:35:13;;;;;;;11.23;5.50;;;;;;;-8.19;80.18;99980.25;5010458;28;20137;-61
2023/11/18 03:37:40;;;;;;;17.45;6.03;;;;;;;-8.21;79.82;99982.91;5011720;28;20046;-60
2023/11/18 03:40:08;;;;;;;9.88;6.30;;;;;;;-8.13;80.57;99983.22;5011018;28;20496;-60
2023/11/18 03:42:35;;;;;;;13.10;7.03;;;;;;;-8.13;80.55;99978.06;5011686;28;20053;-60
2023/11/18 03:45:01;;;;;;;14.70;6.00;;;;;;;-8.16;79.48;99988.56;5010135;28;20041;-59
2023/11/18 03:47:30;;;;;;;12.18;5.75;;;;;;;-8.17;80.05;99976.66;5010284;28;20103;-60
2023/11/18 03:49:57;;;;;;;20.13;6.47;;;;;;;-8.18;80.33;99976.75;5011317;28;20045;-61
2023/11/18 03:52:23;;;;;;;16.30;7.20;;;;;;;-8.17;79.65;99980.97;5011482;28;20175;-61
2023/11/18 03:54:49;;;;;;;13.80;6.75;;;;;;;-8.20;79.71;99982.00;5011152;28;20100;-61
2023/11/18 03:57:15;;;;;;;13.85;6.80;;;;;;;-8.28;78.94;99964.50;5011590;28;20057;-60
2023/11/18 03:59:41;;;;;;;15.68;6.85;;;;;;;-8.24;79.54;99972.81;5010872;28;20041;-62
2023/11/18 04:02:07;;;;;;;16.98;7.07;;;;;;;-8.37;78.99;99977.16;5009957;28;20061;-59
2023/11/18 04:04:33;;;;;;;16.75;7.00;;;;;;;-8.37;79.77;99972.00;5011272;28;20092;-60
2023/11/18 04:07:02;;;;;;;14.20;6.50;;;;;;;-8.36;79.34;99978.78;5010182;28;20119;-60
2023/11/18 04:09:27;;;;;;;16.20;7.95;;;;;;;-8.41;79.48;99980.88;5010907;28;20510;-59
2023/11/18 04:11:53;;;;;;;14.88;6.88;;;;;;;-8.43;79.32;99982.75;5011003;28;20145;-60
2023/11/18 04:14:19;;;;;;;14.48;6.57;;;;;;;-8.43;79.95;99981.00;5011287;28;20057;-60
2023/11/18 04:16:46;;;;;;;15.50;7.35;;;;;;;-8.47;79.25;99979.53;5011280;28;20050;-60
2023/11/18 04:19:12;;;;;;;15.57;6.88;;;;;;;-8.47;80.08;99982.94;5011103;28;20050;-59
2023/11/18 04:21:38;;;;;;;11.98;6.47;;;;;;;-8.46;80.42;99986.34;5009695;28;20033;-60
2023/11/18 04:24:05;;;;;;;19.33;7.63;;;;;;;-8.42;80.12;99987.75;5009732;28;20041;-60
2023/11/18 04:26:32;;;;;;;14.80;7.55;;;;;;;-8.47;78.92;99993.22;5010793;28;20061;-60
2023/11/18 04:28:58;;;;;;;19.52;6.97;;;;;;;-8.44;79.86;99986.22;5013324;28;20077;-60
2023/11/18 04:31:24;;;;;;;10.45;6.35;;;;;;;-8.48;79.12;99995.88;5014603;28;20052;-60
2023/11/18 04:33:50;;;;;;;16.42;7.13;;;;;;;-8.54;79.31;99989.41;5014952;28;20081;-59
2023/11/18 04:36:16;;;;;;;15.15;7.07;;;;;;;-8.53;79.49;99987.66;5012966;28;20080;-61
2023/11/18 04:38:45;;;;;;;12.43;6.78;;;;;;;-8.48;80.33;99993.31;5013257;28;20050;-59
2023/11/18 04:41:11;;;;;;;9.70;5.90;;;;;;;-8.41;80.44;99993.72;5014533;28;20041;-60
2023/11/18 04:43:39;;;;;;;13.93;6.40;;;;;;;-8.48;80.40;99989.00;5015021;28;20304;-59
2023/11/18 04:46:06;;;;;;;16.52;7.38;;;;;;;-8.41;80.27;99988.59;4998103;28;20038;-60
2023/11/18 04:48:32;;;;;;;15.52;6.28;;;;;;;-8.34;80.00;99987.25;5014388;28;20049;-60
2023/11/18 04:50:58;;;;;;;21.08;7.68;;;;;;;-8.32;79.73;99993.13;5013881;28;20033;-61
2023/11/18 04:53:25;;;;;;;18.90;8.20;;;;;;;-8.33;80.71;99986.31;5015339;28;20100;-60
2023/11/18 04:55:51;;;;;;;15.90;8.02;;;;;;;-8.37;80.71;99984.88;5015265;28;20026;-60
2023/11/18 04:58:17;;;;;;;13.75;7.32;;;;;;;-8.36;80.67;99984.75;5015589;28;20415;-60
2023/11/18 05:00:43;;;;;;;16.23;7.43;;;;;;;-8.29;80.82;99988.59;5014834;28;20050;-59
2023/11/18 05:03:09;;;;;;;19.30;7.18;;;;;;;-8.28;80.70;99985.06;5015612;28;20053;-59
2023/11/18 05:05:39;;;;;;;15.70;7.22;;;;;;;-8.26;80.89;99987.56;5014452;28;20049;-62
2023/11/18 05:08:06;;;;;;;11.57;6.65;;;;;;;-8.22;80.65;99982.09;5014000;28;20046;-60
2023/11/18 05:10:36;;;;;;;15.27;7.18;;;;;;;-8.28;81.38;99979.94;5013630;28;20056;-63
2023/11/18 05:13:02;;;;;;;15.70;6.82;;;;;;;-8.22;81.72;99983.84;5013785;28;20484;-59
2023/11/18 05:15:29;;;;;;;13.82;6.75;;;;;;;-8.15;80.70;99986.81;5013825;28;20121;-60
2023/11/18 05:17:55;;;;;;;11.13;6.88;;;;;;;-8.10;80.44;99983.00;5013675;28;20041;-59
2023/11/18 05:20:21;;;;;;;16.55;7.22;;;;;;;-8.07;79.44;99998.25;5013684;28;20485;-61
2023/11/18 05:22:48;;;;;;;16.80;6.90;;;;;;;-8.07;79.62;99993.09;5013674;28;20526;-59
2023/11/18 05:25:14;;;;;;;13.93;6.80;;;;;;;-8.06;80.06;99997.34;5013793;28;20084;-60
2023/11/18 05:27:40;;;;;;;13.68;6.43;;;;;;;-8.08;79.95;99994.03;5013680;28;20069;-60
2023/11/18 05:30:09;;;;;;;14.25;6.88;;;;;;;-8.06;79.42;100001.63;5012924;28;20490;-60
2023/11/18 05:32:35;;;;;;;18.20;7.35;;;;;;;-8.13;78.91;100003.81;5013095;28;20088;-57
2023/11/18 05:35:04;;;;;;;16.77;7.32;;;;;;;-8.09;78.65;100012.13;5013170;28;20041;-59
2023/11/18 05:37:35;;;;;;;19.20;7.30;;;;;;;-8.07;79.18;100005.13;5013373;28;20052;-60
2023/11/18 05:40:06;;;;;;;17.65;7.68;;;;;;;-8.09;79.25;100006.97;4979850;28;20061;-60
2023/11/18 05:42:36;;;;;;;13.68;6.13;;;;;;;-8.18;79.78;100005.03;5012887;28;20066;-60
2023/11/18 05:45:04;;;;;;;15.35;7.20;;;;;;;-8.21;80.28;100013.78;5011708;28;20060;-61
2023/11/18 05:47:31;;;;;;;14.57;7.78;;;;;;;-8.10;79.85;100023.34;5012581;28;20052;-60
2023/11/18 05:49:56;;;;;;;20.52;8.93;;;;;;;-8.05;78.89;100013.59;5012442;28;20041;-61
2023/11/18 05:52:22;;;;;;;21.35;8.93;;;;;;;-8.05;77.86;100016.16;5010983;28;20038;-60
2023/11/18 05:54:49;;;;;;;14.05;7.57;;;;;;;-7.98;77.70;100017.38;5012433;28;20038;-61
2023/11/18 05:57:16;;;;;;;15.60;8.25;;;;;;;-8.03;77.35;100020.28;5012602;28;20042;-61
2023/11/18 05:59:43;;;;;;;14.15;6.63;;;;;;;-8.02;77.78;100021.09;5011827;28;20046;-60
2023/11/18 06:02:12;;;;;;;14.77;7.50;;;;;;;-8.03;76.88;100015.13;5012852;28;20083;-62
2023/11/18 06:04:38;;;;;;;12.50;6.65;;;;;;;-7.93;77.67;100027.38;5012662;28;20038;-60
2023/11/18 06:07:04;;;;;;;15.38;6.68;;;;;;;-7.96;78.22;100022.44;5011239;28;20076;-62
2023/11/18 06:09:30;;;;;;;22.83;7.95;;;;;;;-7.88;77.46;100028.72;5012475;28;20048;-59
2023/11/18 06:11:56;;;;;;;16.80;7.95;;;;;;;-7.85;77.19;100030.25;5012554;28;20054;-60
2023/11/18 06:14:21;;;;;;;24.20;7.95;;;;;;;-7.85;76.62;100031.09;5010671;28;20120;-62
2023/11/18 06:16:50;;;;;;;21.85;8.07;;;;;;;-7.82;76.38;100033.44;5011322;28;20087;-59
2023/11/18 06:19:15;;;;;;;12.98;6.55;;;;;;;-7.82;75.53;100030.06;5011753;28;20499;-60
2023/11/18 06:21:41;;;;;;;21.60;8.70;;;;;;;-7.80;75.57;100029.00;5011217;28;20038;-60
2023/11/18 06:24:07;;;;;;;22.35;8.52;;;;;;;-7.85;76.14;100033.66;5011971;28;20038;-60
2023/11/18 06:26:35;;;;;;;20.35;8.65;;;;;;;-7.84;75.64;100024.19;5011124;28;20038;-59
2023/11/18 06:29:02;;;;;;;16.48;7.93;;;;;;;-7.77;75.69;100030.53;5010565;28;20054;-60
2023/11/18 06:31:29;;;;;;;16.55;7.45;;;;;;;-7.73;76.21;100031.16;5010727;28;20045;-60
2023/11/18 06:33:55;;;;;;;19.85;8.27;;;;;;;-7.67;76.52;100031.56;5010711;28;20516;-61
2023/11/18 06:36:21;;;;;;;19.88;9.13;;;;;;;-7.63;75.69;100035.56;5010542;28;20030;-61
2023/11/18 06:38:49;;;;;;;16.33;7.65;;;;;;;-7.61;75.43;100040.63;5010619;28;20051;-60
2023/11/18 06:41:17;;;;;;;18.52;8.65;;;;;;;-7.59;75.67;100041.34;5011686;28;20164;-61
2023/11/18 06:46:21;;;;;;;18.88;8.38;;;;;;;-7.55;75.21;100046.19;4991389;28;20042;-61
2023/11/18 06:48:49;;;;;;;16.85;7.97;;;;;;;-7.61;75.93;100041.44;4992670;28;20043;-60
2023/11/18 06:51:18;;;;;;;19.80;7.68;;;;;;;-7.56;75.74;100041.13;5008418;28;20042;-61
2023/11/18 06:53:44;;;;;;;14.10;7.75;;;;;;;-7.53;76.19;100040.91;5010611;28;20044;-60
2023/11/18 06:56:10;;;;;;;15.55;8.43;;;;;;;-7.45;76.29;100037.81;5011423;28;20068;-60
2023/11/18 06:58:40;;;;;;;17.45;8.48;;;;;;;-7.39;76.05;100043.34;5011974;28;20113;-57
2023/11/18 07:01:06;;;;;;;25.50;9.10;;;;;;;-7.36;76.04;100042.31;5011257;28;20557;-60
2023/11/18 07:03:33;;;;;;;16.48;9.00;;;;;;;-7.39;76.55;100030.47;5009965;28;20507;-62
2023/11/18 07:05:59;;;;;;;23.42;10.13;;;;;;;-7.34;76.86;100041.28;5010076;28;20050;-61
2023/11/18 07:08:25;;;;;;;23.77;10.40;;;;;;;-7.26;76.48;100045.91;5007564;28;20053;-59
2023/11/18 07:10:50;;;;;;;21.13;9.50;;;;;;;-7.25;76.01;100044.16;5008131;28;20042;-58
2023/11/18 07:13:16;;;;;;;21.50;9.02;;;;;;;-7.27;76.89;100046.84;5011615;28;20068;-60
2023/11/18 07:15:42;;;;;;;18.88;10.02;;;;;;;-7.18;76.79;100048.75;5005030;28;20048;-61
2023/11/18 07:18:14;;;;;;;18.48;9.18;;;;;;;-7.07;76.76;100049.78;5010651;28;20074;-58
2023/11/18 07:20:45;;;;;;;24.55;10.15;;;;;;;-6.99;76.74;100047.50;4959612;28;20045;-60
2023/11/18 07:23:10;;;;;;;20.02;9.48;;;;;;;-6.93;76.92;100036.75;5008717;28;20045;-61
2023/11/18 07:25:37;;;;;;;22.67;10.90;;;;;;;-6.93;76.33;100034.97;5009800;28;20506;-60
2023/11/18 07:28:04;;;;;;;31.55;11.75;;;;;;;-6.88;76.30;100043.22;5011224;28;20133;-59
2023/11/18 07:30:31;;;;;;;20.63;10.00;;;;;;;-6.83;76.18;100047.19;5010479;28;20058;-60
2023/11/18 07:33:00;;;;;;;23.08;10.38;;;;;;;-6.74;76.61;100049.94;5007054;28;20072;-59
2023/11/18 07:35:26;;;;;;;29.00;11.13;;;;;;;-6.72;76.90;100042.09;5011255;28;20085;-60
2023/11/18 07:37:53;;;;;;;24.20;9.95;;;;;;;-6.69;77.21;100052.19;5009823;28;20052;-59
2023/11/18 07:40:27;;;;;;;20.95;10.45;;;;;;;-6.63;77.12;100055.16;5010949;28;20045;-61
2023/11/18 07:42:55;;;;;;;21.77;10.75;;;;;;;-6.51;77.33;100060.34;5011101;28;20045;-60
2023/11/18 07:45:23;;;;;;;21.55;10.32;;;;;;;-6.53;77.29;100062.22;4993054;28;20136;-61
2023/11/18 07:47:52;;;;;;;23.75;10.88;;;;;;;-6.51;77.51;100052.63;5009674;28;20085;-61
2023/11/18 07:50:19;;;;;;;26.55;10.57;;;;;;;-6.46;77.81;100055.69;4993644;28;20132;-62
2023/11/18 07:52:47;;;;;;;24.02;10.45;;;;;;;-6.40;77.80;100053.47;5010188;28;20077;-61
2023/11/18 07:55:13;;;;;;;21.30;10.90;;;;;;;-6.28;77.61;100063.84;5011367;28;20128;-62
2023/11/18 07:57:40;;;;;;;25.30;8.85;;;;;;;-6.27;77.94;100058.56;5011305;28;20034;-62
2023/11/18 08:00:09;;;;;;;28.92;11.85;;;;;;;-6.19;78.30;100063.97;5011246;28;20136;-62
2023/11/18 08:02:39;;;;;;;31.55;10.80;;;;;;;-6.04;78.19;100058.63;5011220;28;20400;-61
2023/11/18 08:05:13;;;;;;;22.05;12.15;;;;;;;-5.93;77.34;100060.41;5013567;28;20042;-60
2023/11/18 08:07:40;;;;;;;26.00;11.15;;;;;;;-5.93;76.57;100065.56;5014820;28;20038;-59
2023/11/18 08:10:06;;;;;;;21.63;10.07;;;;;;;-5.91;77.11;100061.91;5015099;28;20132;-61
2023/11/18 08:12:32;;;;;;;24.98;11.05;;;;;;;-5.82;76.75;100066.38;5015090;28;20099;-62
2023/11/18 08:15:00;;;;;;;27.05;11.50;;;;;;;-5.81;76.97;100064.63;5015017;28;20038;-61
2023/11/18 08:17:26;;;;;;;22.58;11.65;;;;;;;-5.74;77.04;100058.84;5014803;28;20419;-60
2023/11/18 08:19:52;;;;;;;19.30;11.70;;;;;;;-5.66;75.98;100060.03;5013237;28;20050;-60
2023/11/18 08:22:19;;;;;;;21.80;11.70;;;;;;;-5.62;76.64;100057.09;5014807;28;20049;-58
2023/11/18 08:24:46;;;;;;;21.52;11.73;;;;;;;-5.58;76.61;100063.69;5014664;28;20046;-58
2023/11/18 08:27:12;;;;;;;23.40;10.95;;;;;;;-5.48;76.54;100053.47;4964770;28;20049;-59
2023/11/18 08:29:38;;;;;;;27.25;11.20;;;;;;;-5.45;76.17;100057.56;4997031;28;20133;-60
2023/11/18 08:32:06;;;;;;;23.48;9.93;;;;;;;-5.51;76.12;100040.78;4993478;28;20562;-60
2023/11/18 08:34:33;;;;;;;20.30;10.27;;;;;;;-5.39;76.34;100042.41;4992957;28;20045;-60
2023/11/18 08:36:59;;;;;;;27.90;10.10;;;;;;;-5.31;75.54;100049.59;4992921;28;20484;-59
2023/11/18 08:39:26;;;;;;;25.77;9.60;;;;;;;-5.28;75.18;100054.50;4994518;28;20097;-63
2023/11/18 08:41:51;;;;;;;23.13;9.52;;;;;;;-5.23;75.35;100051.59;4994355;28;20380;-61
2023/11/18 08:44:17;;;;;;;22.13;10.35;;;;;;;-5.18;75.30;100046.84;4994266;28;20129;-60
2023/11/18 08:46:44;;;;;;;18.35;9.23;;;;;;;-5.13;74.89;100045.56;4994151;28;20463;-60
2023/11/18 08:49:13;;;;;;;23.63;10.23;;;;;;;-4.97;75.45;100045.19;4994618;28;20038;-61
2023/11/18 08:51:41;;;;;;;18.33;10.00;;;;;;;-4.87;73.94;100043.50;4994264;28;20505;-64
2023/11/18 08:57:15;;;;;;;19.55;8.35;;;;;;;-4.83;72.93;100044.06;4984697;28;20112;-64
2023/11/18 08:59:41;;;;;;;17.70;8.65;;;;;;;-4.77;72.26;100040.19;4992724;28;20503;-62
2023/11/18 09:02:07;;;;;;;16.02;6.55;;;;;;;-4.76;71.34;100040.06;4988325;28;20100;-60
2023/11/18 09:04:33;;;;;;;15.10;6.55;;;;;;;-4.67;71.02;100039.31;4988233;28;20066;-61
2023/11/18 09:07:00;;;;;;;14.57;6.03;;;;;;;-4.58;70.48;100043.75;4989135;28;20046;-61
2023/11/18 09:09:29;;;;;;;22.95;7.22;;;;;;;-4.51;69.90;100046.66;4990046;28;20046;-62
2023/11/18 09:11:58;;;;;;;19.75;6.55;;;;;;;-4.49;69.41;100054.31;4989866;28;20042;-61
2023/11/18 09:14:25;;;;;;;13.70;6.35;;;;;;;-4.45;69.31;100040.16;4989045;28;20093;-61
2023/11/18 09:16:54;;;;;;;14.20;6.10;;;;;;;-4.40;68.90;100045.78;4993738;28;20146;-62
2023/11/18 09:19:21;;;;;;;8.82;4.80;;;;;;;-4.36;68.16;100044.59;4994014;28;20447;-60
2023/11/18 09:21:48;;;;;;;11.30;5.15;;;;;;;-4.36;67.69;100042.00;4992580;28;20125;-61
2023/11/18 09:24:19;;;;;;;14.70;5.40;;;;;;;-4.35;67.81;100041.06;4992499;28;20045;-61
2023/11/18 09:26:49;;;;;;;14.43;6.85;;;;;;;-4.39;68.29;100042.25;4992787;28;20042;-62
2023/11/18 09:29:18;;;;;;;13.10;5.88;;;;;;;-4.38;68.06;100044.72;4993693;28;20100;-62
2023/11/18 09:31:52;;;;;;;14.45;5.95;;;;;;;-4.31;67.51;100046.81;4995097;28;20077;-61
2023/11/18 09:34:26;;;;;;;11.15;5.95;;;;;;;-4.29;66.47;100048.34;5013478;28;20215;-61
2023/11/18 09:36:54;;;;;;;15.05;6.72;;;;;;;-4.22;67.67;100046.88;5013396;28;21869;-62
2023/11/18 09:39:38;;;;;;;15.52;7.38;;;;;;;-4.16;67.43;100054.13;5013157;28;20080;-63
2023/11/18 09:42:08;;;;;;;16.60;7.47;;;;;;;-4.14;67.26;100038.47;5012248;28;20095;-62
2023/11/18 09:44:37;;;;;;;10.15;5.80;;;;;;;-4.04;67.15;100039.34;5012959;28;20041;-62
2023/11/18 09:47:04;;;;;;;15.30;6.68;;;;;;;-4.01;66.53;100033.91;5013247;28;20058;-61
2023/11/18 09:49:38;;;;;;;16.33;6.78;;;;;;;-4.00;65.96;100040.75;5011775;28;20052;-62
2023/11/18 09:52:06;;;;;;;16.30;6.03;;;;;;;-4.01;66.22;100041.69;5012992;28;20132;-62
2023/11/18 09:54:52;;;;;;;15.45;6.53;;;;;;;-4.04;65.74;100046.31;5012930;28;20128;-62
2023/11/18 09:57:31;;;;;;;15.85;6.22;;;;;;;-4.11;65.15;100038.22;5013160;28;20506;-62
2023/11/18 10:00:19;;;;;;;14.95;6.60;;;;;;;-4.06;64.89;100037.84;5012958;28;20050;-62
2023/11/18 10:02:47;;;;;;;15.13;6.32;;;;;;;-4.06;64.87;100038.66;5012988;28;20049;-60
2023/11/18 10:05:13;;;;;;;16.25;6.43;;;;;;;-4.02;64.94;100037.47;5012680;28;20046;-62
2023/11/18 10:07:41;;;;;;;14.15;5.60;;;;;;;-3.99;63.44;100038.97;5012930;28;20048;-62
2023/11/18 10:10:20;;;;;;;13.48;6.05;;;;;;;-3.97;63.70;100037.91;5012870;28;20038;-62
2023/11/18 10:12:52;;;;;;;18.42;6.35;;;;;;;-3.94;63.02;100039.41;5012736;28;20054;-62
2023/11/18 10:15:23;;;;;;;21.45;6.88;;;;;;;-3.95;64.42;100036.00;5012621;28;20113;-62
2023/11/18 10:18:23;;;;;;;11.40;5.38;;;;;;;-3.95;63.34;100033.41;5011339;28;20052;-61
2023/11/18 10:20:47;;;;;;;13.05;6.00;;;;;;;-3.94;62.81;100035.06;5010253;28;20053;-61
2023/11/18 10:23:20;;;;;;;19.55;7.50;;;;;;;-3.87;63.10;100032.78;5012748;28;20053;-62
2023/11/18 10:25:49;;;;;;;17.85;6.82;;;;;;;-3.79;63.48;100029.53;5011441;28;20514;-61
2023/11/18 10:28:27;;;;;;;17.60;6.78;;;;;;;-3.74;63.42;100033.38;5012584;28;20444;-61
2023/11/18 10:31:06;;;;;;;30.55;14.07;;;;;;;-3.67;63.20;100029.31;5010907;28;20064;-61
2023/11/18 10:33:37;;;;;;;17.60;6.60;;;;;;;-3.63;62.22;100027.28;5012557;28;20412;-62
2023/11/18 10:36:04;;;;;;;20.35;6.50;;;;;;;-3.67;62.13;100023.31;5011334;28;20041;-63
2023/11/18 10:38:31;;;;;;;15.77;6.05;;;;;;;-3.76;62.42;100027.50;5012406;28;20034;-61
2023/11/18 10:41:01;;;;;;;15.50;5.82;;;;;;;-3.74;60.70;100028.19;5012317;28;20462;-60
2023/11/18 10:43:30;;;;;;;19.63;6.57;;;;;;;-3.70;60.63;100026.19;5010589;28;20042;-62
2023/11/18 10:46:13;;;;;;;13.13;6.30;;;;;;;-3.68;61.51;100025.09;5012075;28;20098;-61
2023/11/18 10:48:44;;;;;;;11.82;5.55;;;;;;;-3.69;61.14;100025.22;5010849;28;20072;-61
2023/11/18 10:51:11;;;;;;;15.32;6.38;;;;;;;-3.69;61.02;100022.63;5012159;28;20545;-62
2023/11/18 10:53:53;;;;;;;21.42;6.50;;;;;;;-3.70;61.26;100026.19;5010444;28;20590;-61
2023/11/18 10:56:24;;;;;;;14.23;5.22;;;;;;;-3.73;59.23;100024.66;5012031;28;20108;-61
2023/11/18 10:58:51;;;;;;;11.48;5.65;;;;;;;-3.73;59.38;100029.84;5012327;28;20050;-62
2023/11/18 11:01:31;;;;;;;19.45;6.65;;;;;;;-3.71;59.66;100027.09;5011874;28;20046;-62
2023/11/18 11:03:58;;;;;;;23.38;6.60;;;;;;;-3.68;60.11;100024.25;4994376;28;20050;-61
2023/11/18 11:06:25;;;;;;;21.83;6.93;;;;;;;-3.71;60.58;100027.91;5010819;28;20088;-62
2023/11/18 11:08:53;;;;;;;22.30;8.57;;;;;;;-3.77;62.42;100028.44;5011990;28;20041;-61
2023/11/18 11:11:21;;;;;;;20.95;8.43;;;;;;;-3.76;62.65;100026.69;5011689;28;20038;-62
2023/11/18 11:13:57;;;;;;;19.02;8.82;;;;;;;-3.77;63.11;100028.44;5011934;28;20133;-63
2023/11/18 11:16:27;;;;;;;17.90;7.93;;;;;;;-3.80;63.60;100023.53;5011681;28;20049;-61
2023/11/18 11:18:55;;;;;;;17.70;8.68;;;;;;;-3.82;64.57;100032.38;5010395;28;20050;-63
2023/11/18 11:21:28;;;;;;;20.05;7.65;;;;;;;-3.92;64.50;100025.38;5011529;28;20046;-63
2023/11/18 11:24:12;;;;;;;22.30;8.25;;;;;;;-3.96;64.84;100024.00;5011891;28;20041;-61
2023/11/18 11:26:54;;;;;;;16.27;7.97;;;;;;;-4.00;64.74;100026.97;5011557;28;20100;-62
2023/11/18 11:29:34;;;;;;;16.17;7.53;;;;;;;-3.98;65.23;100032.84;5010014;28;20128;-61